sensor_id;sensor_type;location;lat;lon;timestamp;P1;durP1;ratioP1;P2;durP2;ratioP2
19679;SDS011;9989;48.962;9.182;2022-09-16T00:00:44;10.60;;;6.23;;
19679;SDS011;9989;48.962;9.182;2022-09-16T00:03:11;11.63;;;6.97;;
19679;SDS011;9989;48.962;9.182;2022-09-16T00:05:43;13.97;;;7.17;;
19679;SDS011;9989;48.962;9.182;2022-09-16T00:08:11;13.03;;;6.83;;
19679;SDS011;9989;48.962;9.182;2022-09-16T00:10:38;11.00;;;6.60;;
19679;SDS011;9989;48.962;9.182;2022-09-16T00:13:04;11.87;;;7.20;;
19679;SDS011;9989;48.962;9.182;2022-09-16T00:15:30;11.40;;;6.90;;
19679;SDS011;9989;48.962;9.182;2022-09-16T00:17:57;12.77;;;7.00;;
19679;SDS011;9989;48.962;9.182;2022-09-16T00:20:23;11.90;;;6.90;;
19679;SDS011;9989;48.962;9.182;2022-09-16T00:22:49;13.17;;;7.20;;
19679;SDS011;9989;48.962;9.182;2022-09-16T00:25:14;13.50;;;7.23;;
19679;SDS011;9989;48.962;9.182;2022-09-16T00:27:40;16.10;;;7.50;;
19679;SDS011;9989;48.962;9.182;2022-09-16T00:30:05;13.50;;;7.37;;
19679;SDS011;9989;48.962;9.182;2022-09-16T00:32:32;11.90;;;7.43;;
19679;SDS011;9989;48.962;9.182;2022-09-16T00:34:57;11.97;;;7.10;;
19679;SDS011;9989;48.962;9.182;2022-09-16T00:37:23;12.77;;;7.07;;
19679;SDS011;9989;48.962;9.182;2022-09-16T00:39:48;12.33;;;6.80;;
19679;SDS011;9989;48.962;9.182;2022-09-16T00:42:15;10.37;;;6.87;;
19679;SDS011;9989;48.962;9.182;2022-09-16T00:47:30;13.70;;;7.40;;
19679;SDS011;9989;48.962;9.182;2022-09-16T00:50:17;11.03;;;6.30;;
19679;SDS011;9989;48.962;9.182;2022-09-16T00:53:04;11.47;;;6.10;;
19679;SDS011;9989;48.962;9.182;2022-09-16T00:55:34;11.10;;;6.93;;
19679;SDS011;9989;48.962;9.182;2022-09-16T01:00:42;11.60;;;6.50;;
19679;SDS011;9989;48.962;9.182;2022-09-16T01:03:08;10.37;;;5.77;;
19679;SDS011;9989;48.962;9.182;2022-09-16T01:05:33;20.97;;;7.50;;
19679;SDS011;9989;48.962;9.182;2022-09-16T01:08:01;12.40;;;7.13;;
19679;SDS011;9989;48.962;9.182;2022-09-16T01:10:27;13.53;;;6.40;;
19679;SDS011;9989;48.962;9.182;2022-09-16T01:13:00;12.40;;;7.10;;
19679;SDS011;9989;48.962;9.182;2022-09-16T01:21:04;11.83;;;6.33;;
19679;SDS011;9989;48.962;9.182;2022-09-16T01:34:33;12.33;;;6.57;;
19679;SDS011;9989;48.962;9.182;2022-09-16T01:37:07;10.67;;;6.03;;
19679;SDS011;9989;48.962;9.182;2022-09-16T01:42:18;12.13;;;5.60;;
19679;SDS011;9989;48.962;9.182;2022-09-16T01:51:39;8.87;;;5.13;;
19679;SDS011;9989;48.962;9.182;2022-09-16T01:54:17;8.93;;;5.47;;
19679;SDS011;9989;48.962;9.182;2022-09-16T01:57:02;12.17;;;5.23;;
19679;SDS011;9989;48.962;9.182;2022-09-16T02:02:20;10.37;;;5.60;;
19679;SDS011;9989;48.962;9.182;2022-09-16T02:04:56;11.83;;;6.47;;
19679;SDS011;9989;48.962;9.182;2022-09-16T02:07:24;9.93;;;5.30;;
19679;SDS011;9989;48.962;9.182;2022-09-16T02:09:57;11.30;;;6.43;;
19679;SDS011;9989;48.962;9.182;2022-09-16T02:12:31;21.90;;;6.67;;
19679;SDS011;9989;48.962;9.182;2022-09-16T02:15:03;10.33;;;6.37;;
19679;SDS011;9989;48.962;9.182;2022-09-16T02:17:32;12.00;;;6.33;;
19679;SDS011;9989;48.962;9.182;2022-09-16T02:20:05;10.40;;;6.03;;
19679;SDS011;9989;48.962;9.182;2022-09-16T02:22:39;10.67;;;6.40;;
19679;SDS011;9989;48.962;9.182;2022-09-16T02:25:08;9.30;;;5.27;;
19679;SDS011;9989;48.962;9.182;2022-09-16T02:27:36;10.63;;;5.53;;
19679;SDS011;9989;48.962;9.182;2022-09-16T02:30:05;11.97;;;5.77;;
19679;SDS011;9989;48.962;9.182;2022-09-16T02:32:34;9.60;;;5.23;;
19679;SDS011;9989;48.962;9.182;2022-09-16T02:35:05;14.93;;;4.90;;
19679;SDS011;9989;48.962;9.182;2022-09-16T02:37:41;8.50;;;4.60;;
19679;SDS011;9989;48.962;9.182;2022-09-16T02:40:18;10.60;;;4.80;;
19679;SDS011;9989;48.962;9.182;2022-09-16T02:43:04;7.97;;;4.40;;
19679;SDS011;9989;48.962;9.182;2022-09-16T02:46:07;7.57;;;4.20;;
19679;SDS011;9989;48.962;9.182;2022-09-16T02:51:04;12.43;;;5.50;;
19679;SDS011;9989;48.962;9.182;2022-09-16T02:53:53;13.47;;;5.80;;
19679;SDS011;9989;48.962;9.182;2022-09-16T02:56:36;9.10;;;5.40;;
19679;SDS011;9989;48.962;9.182;2022-09-16T02:59:05;8.97;;;4.77;;
19679;SDS011;9989;48.962;9.182;2022-09-16T03:01:32;11.10;;;4.90;;
19679;SDS011;9989;48.962;9.182;2022-09-16T03:04:05;11.90;;;4.70;;
19679;SDS011;9989;48.962;9.182;2022-09-16T03:06:34;10.07;;;4.33;;
19679;SDS011;9989;48.962;9.182;2022-09-16T03:09:00;8.03;;;4.67;;
19679;SDS011;9989;48.962;9.182;2022-09-16T03:22:32;9.23;;;4.97;;
19679;SDS011;9989;48.962;9.182;2022-09-16T03:31:09;10.07;;;5.13;;
19679;SDS011;9989;48.962;9.182;2022-09-16T03:34:24;13.67;;;4.10;;
19679;SDS011;9989;48.962;9.182;2022-09-16T03:36:38;11.07;;;4.60;;
19679;SDS011;9989;48.962;9.182;2022-09-16T03:39:08;14.60;;;4.97;;
19679;SDS011;9989;48.962;9.182;2022-09-16T03:41:34;8.07;;;4.57;;
19679;SDS011;9989;48.962;9.182;2022-09-16T03:44:00;8.40;;;3.67;;
19679;SDS011;9989;48.962;9.182;2022-09-16T03:46:26;8.07;;;4.17;;
19679;SDS011;9989;48.962;9.182;2022-09-16T03:48:53;8.20;;;4.27;;
19679;SDS011;9989;48.962;9.182;2022-09-16T03:51:19;7.63;;;3.93;;
19679;SDS011;9989;48.962;9.182;2022-09-16T03:53:45;7.77;;;3.57;;
19679;SDS011;9989;48.962;9.182;2022-09-16T03:56:11;9.10;;;4.03;;
19679;SDS011;9989;48.962;9.182;2022-09-16T03:58:36;9.53;;;4.20;;
19679;SDS011;9989;48.962;9.182;2022-09-16T04:01:02;8.57;;;3.97;;
19679;SDS011;9989;48.962;9.182;2022-09-16T04:03:27;7.57;;;4.17;;
19679;SDS011;9989;48.962;9.182;2022-09-16T04:05:54;8.73;;;4.13;;
19679;SDS011;9989;48.962;9.182;2022-09-16T04:08:20;8.17;;;3.77;;
19679;SDS011;9989;48.962;9.182;2022-09-16T04:10:56;10.27;;;4.40;;
19679;SDS011;9989;48.962;9.182;2022-09-16T04:13:28;7.50;;;3.47;;
19679;SDS011;9989;48.962;9.182;2022-09-16T04:15:54;6.50;;;3.30;;
19679;SDS011;9989;48.962;9.182;2022-09-16T04:18:20;7.80;;;3.67;;
19679;SDS011;9989;48.962;9.182;2022-09-16T04:20:45;7.60;;;3.00;;
19679;SDS011;9989;48.962;9.182;2022-09-16T04:23:11;7.40;;;3.70;;
19679;SDS011;9989;48.962;9.182;2022-09-16T04:25:37;7.13;;;3.30;;
19679;SDS011;9989;48.962;9.182;2022-09-16T04:28:04;8.47;;;3.50;;
19679;SDS011;9989;48.962;9.182;2022-09-16T04:30:30;8.93;;;3.20;;
19679;SDS011;9989;48.962;9.182;2022-09-16T04:32:56;7.23;;;3.33;;
19679;SDS011;9989;48.962;9.182;2022-09-16T04:35:22;10.70;;;3.57;;
19679;SDS011;9989;48.962;9.182;2022-09-16T04:37:49;7.13;;;3.43;;
19679;SDS011;9989;48.962;9.182;2022-09-16T04:40:15;8.00;;;3.40;;
19679;SDS011;9989;48.962;9.182;2022-09-16T04:42:41;9.33;;;4.00;;
19679;SDS011;9989;48.962;9.182;2022-09-16T04:45:12;9.03;;;3.60;;
19679;SDS011;9989;48.962;9.182;2022-09-16T04:47:37;8.40;;;3.63;;
19679;SDS011;9989;48.962;9.182;2022-09-16T04:50:03;9.60;;;4.40;;
19679;SDS011;9989;48.962;9.182;2022-09-16T04:52:29;8.53;;;4.30;;
19679;SDS011;9989;48.962;9.182;2022-09-16T04:54:55;11.53;;;5.60;;
19679;SDS011;9989;48.962;9.182;2022-09-16T04:57:21;16.10;;;8.20;;
19679;SDS011;9989;48.962;9.182;2022-09-16T04:59:46;17.03;;;8.90;;
19679;SDS011;9989;48.962;9.182;2022-09-16T05:02:12;15.47;;;8.10;;
19679;SDS011;9989;48.962;9.182;2022-09-16T05:04:37;13.33;;;7.03;;
19679;SDS011;9989;48.962;9.182;2022-09-16T05:07:03;14.07;;;6.33;;
19679;SDS011;9989;48.962;9.182;2022-09-16T05:09:28;13.93;;;5.83;;
19679;SDS011;9989;48.962;9.182;2022-09-16T05:11:54;11.33;;;5.33;;
19679;SDS011;9989;48.962;9.182;2022-09-16T05:14:19;10.63;;;5.43;;
19679;SDS011;9989;48.962;9.182;2022-09-16T05:16:45;11.80;;;5.70;;
19679;SDS011;9989;48.962;9.182;2022-09-16T05:19:11;12.67;;;5.30;;
19679;SDS011;9989;48.962;9.182;2022-09-16T05:21:38;11.63;;;5.70;;
19679;SDS011;9989;48.962;9.182;2022-09-16T05:24:05;12.47;;;5.20;;
19679;SDS011;9989;48.962;9.182;2022-09-16T05:26:32;10.13;;;4.90;;
19679;SDS011;9989;48.962;9.182;2022-09-16T05:29:00;10.97;;;4.67;;
19679;SDS011;9989;48.962;9.182;2022-09-16T05:31:33;12.83;;;5.37;;
19679;SDS011;9989;48.962;9.182;2022-09-16T05:34:04;9.73;;;5.03;;
19679;SDS011;9989;48.962;9.182;2022-09-16T05:36:30;14.20;;;5.70;;
19679;SDS011;9989;48.962;9.182;2022-09-16T05:38:59;11.63;;;5.10;;
19679;SDS011;9989;48.962;9.182;2022-09-16T05:41:24;10.63;;;5.10;;
19679;SDS011;9989;48.962;9.182;2022-09-16T05:43:50;8.83;;;4.40;;
19679;SDS011;9989;48.962;9.182;2022-09-16T05:46:20;9.93;;;4.83;;
19679;SDS011;9989;48.962;9.182;2022-09-16T05:48:46;8.80;;;4.30;;
19679;SDS011;9989;48.962;9.182;2022-09-16T05:51:13;9.33;;;4.37;;
19679;SDS011;9989;48.962;9.182;2022-09-16T05:53:40;13.23;;;4.73;;
19679;SDS011;9989;48.962;9.182;2022-09-16T05:56:08;9.43;;;4.07;;
19679;SDS011;9989;48.962;9.182;2022-09-16T05:58:36;10.33;;;4.30;;
19679;SDS011;9989;48.962;9.182;2022-09-16T06:01:10;8.33;;;3.90;;
19679;SDS011;9989;48.962;9.182;2022-09-16T06:03:38;8.50;;;4.13;;
19679;SDS011;9989;48.962;9.182;2022-09-16T06:06:06;6.47;;;3.50;;
19679;SDS011;9989;48.962;9.182;2022-09-16T06:08:37;8.70;;;3.87;;
19679;SDS011;9989;48.962;9.182;2022-09-16T06:11:04;8.17;;;3.30;;
19679;SDS011;9989;48.962;9.182;2022-09-16T06:13:31;9.47;;;3.63;;
19679;SDS011;9989;48.962;9.182;2022-09-16T06:15:57;8.40;;;3.40;;
19679;SDS011;9989;48.962;9.182;2022-09-16T06:18:23;7.70;;;3.50;;
19679;SDS011;9989;48.962;9.182;2022-09-16T06:20:50;12.37;;;3.80;;
19679;SDS011;9989;48.962;9.182;2022-09-16T06:23:16;9.43;;;3.70;;
19679;SDS011;9989;48.962;9.182;2022-09-16T06:25:43;8.90;;;4.37;;
19679;SDS011;9989;48.962;9.182;2022-09-16T06:28:09;6.80;;;3.60;;
19679;SDS011;9989;48.962;9.182;2022-09-16T06:30:35;9.50;;;4.40;;
19679;SDS011;9989;48.962;9.182;2022-09-16T06:33:02;10.13;;;3.97;;
19679;SDS011;9989;48.962;9.182;2022-09-16T06:35:27;10.60;;;3.97;;
19679;SDS011;9989;48.962;9.182;2022-09-16T06:37:53;10.10;;;4.17;;
19679;SDS011;9989;48.962;9.182;2022-09-16T06:40:19;9.77;;;3.87;;
19679;SDS011;9989;48.962;9.182;2022-09-16T06:42:44;6.83;;;3.53;;
19679;SDS011;9989;48.962;9.182;2022-09-16T06:45:10;7.40;;;3.50;;
19679;SDS011;9989;48.962;9.182;2022-09-16T06:47:36;7.53;;;3.77;;
19679;SDS011;9989;48.962;9.182;2022-09-16T06:50:02;9.37;;;3.90;;
19679;SDS011;9989;48.962;9.182;2022-09-16T06:52:29;10.10;;;3.67;;
19679;SDS011;9989;48.962;9.182;2022-09-16T06:54:55;7.90;;;3.63;;
19679;SDS011;9989;48.962;9.182;2022-09-16T06:57:21;9.33;;;3.87;;
19679;SDS011;9989;48.962;9.182;2022-09-16T06:59:50;8.40;;;3.50;;
19679;SDS011;9989;48.962;9.182;2022-09-16T07:02:16;7.73;;;3.90;;
19679;SDS011;9989;48.962;9.182;2022-09-16T07:04:42;7.80;;;3.67;;
19679;SDS011;9989;48.962;9.182;2022-09-16T07:07:08;11.33;;;4.57;;
19679;SDS011;9989;48.962;9.182;2022-09-16T07:09:34;10.57;;;3.93;;
19679;SDS011;9989;48.962;9.182;2022-09-16T07:11:59;11.27;;;4.37;;
19679;SDS011;9989;48.962;9.182;2022-09-16T07:14:26;7.67;;;3.60;;
19679;SDS011;9989;48.962;9.182;2022-09-16T07:16:52;7.50;;;3.83;;
19679;SDS011;9989;48.962;9.182;2022-09-16T07:19:18;9.93;;;4.37;;
19679;SDS011;9989;48.962;9.182;2022-09-16T07:21:44;8.07;;;3.77;;
19679;SDS011;9989;48.962;9.182;2022-09-16T07:24:11;12.97;;;6.80;;
19679;SDS011;9989;48.962;9.182;2022-09-16T07:26:37;11.03;;;5.10;;
19679;SDS011;9989;48.962;9.182;2022-09-16T07:29:05;9.27;;;4.40;;
19679;SDS011;9989;48.962;9.182;2022-09-16T07:31:33;11.00;;;4.40;;
19679;SDS011;9989;48.962;9.182;2022-09-16T07:34:00;9.57;;;4.30;;
19679;SDS011;9989;48.962;9.182;2022-09-16T07:36:27;9.03;;;4.57;;
19679;SDS011;9989;48.962;9.182;2022-09-16T07:38:55;10.87;;;4.33;;
19679;SDS011;9989;48.962;9.182;2022-09-16T07:41:26;9.57;;;5.43;;
19679;SDS011;9989;48.962;9.182;2022-09-16T07:43:55;11.70;;;4.70;;
19679;SDS011;9989;48.962;9.182;2022-09-16T07:46:23;11.13;;;4.87;;
19679;SDS011;9989;48.962;9.182;2022-09-16T07:48:50;9.53;;;4.70;;
19679;SDS011;9989;48.962;9.182;2022-09-16T07:51:20;8.50;;;4.97;;
19679;SDS011;9989;48.962;9.182;2022-09-16T07:53:51;8.40;;;4.73;;
19679;SDS011;9989;48.962;9.182;2022-09-16T07:56:23;10.80;;;5.03;;
19679;SDS011;9989;48.962;9.182;2022-09-16T07:58:51;10.30;;;5.13;;
19679;SDS011;9989;48.962;9.182;2022-09-16T08:01:18;11.97;;;5.33;;
19679;SDS011;9989;48.962;9.182;2022-09-16T08:03:44;10.47;;;4.27;;
19679;SDS011;9989;48.962;9.182;2022-09-16T08:06:15;11.43;;;5.43;;
19679;SDS011;9989;48.962;9.182;2022-09-16T08:08:42;9.30;;;4.70;;
19679;SDS011;9989;48.962;9.182;2022-09-16T08:11:08;9.40;;;4.93;;
19679;SDS011;9989;48.962;9.182;2022-09-16T08:13:36;12.10;;;4.93;;
19679;SDS011;9989;48.962;9.182;2022-09-16T08:16:06;10.00;;;4.80;;
19679;SDS011;9989;48.962;9.182;2022-09-16T08:18:34;9.00;;;4.60;;
19679;SDS011;9989;48.962;9.182;2022-09-16T08:21:06;9.60;;;4.53;;
19679;SDS011;9989;48.962;9.182;2022-09-16T08:23:37;11.73;;;5.83;;
19679;SDS011;9989;48.962;9.182;2022-09-16T08:26:03;11.03;;;5.53;;
19679;SDS011;9989;48.962;9.182;2022-09-16T08:28:29;11.13;;;5.83;;
19679;SDS011;9989;48.962;9.182;2022-09-16T08:30:57;9.63;;;5.07;;
19679;SDS011;9989;48.962;9.182;2022-09-16T08:33:24;11.23;;;5.33;;
19679;SDS011;9989;48.962;9.182;2022-09-16T08:36:00;10.30;;;5.80;;
19679;SDS011;9989;48.962;9.182;2022-09-16T08:38:32;11.57;;;6.27;;
19679;SDS011;9989;48.962;9.182;2022-09-16T08:43:56;9.63;;;5.50;;
19679;SDS011;9989;48.962;9.182;2022-09-16T08:49:35;14.73;;;5.43;;
19679;SDS011;9989;48.962;9.182;2022-09-16T08:52:08;12.70;;;5.30;;
19679;SDS011;9989;48.962;9.182;2022-09-16T08:54:51;13.50;;;5.77;;
19679;SDS011;9989;48.962;9.182;2022-09-16T08:57:20;13.73;;;5.33;;
19679;SDS011;9989;48.962;9.182;2022-09-16T08:59:53;12.17;;;5.87;;
19679;SDS011;9989;48.962;9.182;2022-09-16T09:02:25;10.27;;;4.87;;
19679;SDS011;9989;48.962;9.182;2022-09-16T09:04:59;10.47;;;5.10;;
19679;SDS011;9989;48.962;9.182;2022-09-16T09:07:38;12.50;;;5.30;;
19679;SDS011;9989;48.962;9.182;2022-09-16T09:13:02;9.53;;;5.50;;
19679;SDS011;9989;48.962;9.182;2022-09-16T09:15:33;11.97;;;5.70;;
19679;SDS011;9989;48.962;9.182;2022-09-16T09:18:04;11.17;;;6.03;;
19679;SDS011;9989;48.962;9.182;2022-09-16T09:23:44;10.73;;;5.83;;
19679;SDS011;9989;48.962;9.182;2022-09-16T09:26:14;9.97;;;5.07;;
19679;SDS011;9989;48.962;9.182;2022-09-16T09:29:33;11.03;;;6.03;;
19679;SDS011;9989;48.962;9.182;2022-09-16T09:45:57;14.97;;;5.97;;
19679;SDS011;9989;48.962;9.182;2022-09-16T09:49:01;11.37;;;5.80;;
19679;SDS011;9989;48.962;9.182;2022-09-16T09:51:40;11.73;;;4.70;;
19679;SDS011;9989;48.962;9.182;2022-09-16T09:54:24;9.87;;;4.53;;
19679;SDS011;9989;48.962;9.182;2022-09-16T09:57:10;11.93;;;4.73;;
19679;SDS011;9989;48.962;9.182;2022-09-16T10:00:01;8.20;;;4.73;;
19679;SDS011;9989;48.962;9.182;2022-09-16T10:02:38;8.00;;;4.00;;
19679;SDS011;9989;48.962;9.182;2022-09-16T10:05:05;8.77;;;4.60;;
19679;SDS011;9989;48.962;9.182;2022-09-16T10:07:42;8.53;;;5.10;;
19679;SDS011;9989;48.962;9.182;2022-09-16T10:10:15;10.47;;;5.80;;
19679;SDS011;9989;48.962;9.182;2022-09-16T10:12:45;13.80;;;6.40;;
19679;SDS011;9989;48.962;9.182;2022-09-16T10:15:20;11.07;;;5.07;;
19679;SDS011;9989;48.962;9.182;2022-09-16T10:17:50;12.07;;;5.60;;
19679;SDS011;9989;48.962;9.182;2022-09-16T10:23:10;13.67;;;6.17;;
19679;SDS011;9989;48.962;9.182;2022-09-16T10:25:36;8.90;;;4.90;;
19679;SDS011;9989;48.962;9.182;2022-09-16T10:28:03;15.40;;;5.90;;
19679;SDS011;9989;48.962;9.182;2022-09-16T10:30:52;9.27;;;5.30;;
19679;SDS011;9989;48.962;9.182;2022-09-16T10:36:05;10.60;;;5.63;;
19679;SDS011;9989;48.962;9.182;2022-09-16T10:38:43;10.20;;;5.50;;
19679;SDS011;9989;48.962;9.182;2022-09-16T10:41:42;9.50;;;5.80;;
19679;SDS011;9989;48.962;9.182;2022-09-16T10:44:17;12.77;;;6.50;;
19679;SDS011;9989;48.962;9.182;2022-09-16T10:47:01;10.90;;;5.87;;
19679;SDS011;9989;48.962;9.182;2022-09-16T10:52:08;11.27;;;5.73;;
19679;SDS011;9989;48.962;9.182;2022-09-16T10:54:37;10.47;;;5.20;;
19679;SDS011;9989;48.962;9.182;2022-09-16T10:57:02;9.60;;;5.80;;
19679;SDS011;9989;48.962;9.182;2022-09-16T10:59:28;16.33;;;6.03;;
19679;SDS011;9989;48.962;9.182;2022-09-16T11:02:16;9.57;;;4.77;;
19679;SDS011;9989;48.962;9.182;2022-09-16T11:05:10;12.10;;;4.67;;
19679;SDS011;9989;48.962;9.182;2022-09-16T11:10:30;9.23;;;4.73;;
19679;SDS011;9989;48.962;9.182;2022-09-16T11:29:48;9.13;;;5.13;;
19679;SDS011;9989;48.962;9.182;2022-09-16T11:32:38;12.43;;;4.90;;
19679;SDS011;9989;48.962;9.182;2022-09-16T11:37:56;9.07;;;4.00;;
19679;SDS011;9989;48.962;9.182;2022-09-16T11:53:56;6.67;;;2.93;;
19679;SDS011;9989;48.962;9.182;2022-09-16T11:56:45;8.90;;;3.27;;
19679;SDS011;9989;48.962;9.182;2022-09-16T12:01:56;10.60;;;3.40;;
19679;SDS011;9989;48.962;9.182;2022-09-16T12:04:29;7.87;;;2.63;;
19679;SDS011;9989;48.962;9.182;2022-09-16T12:09:49;7.17;;;3.30;;
19679;SDS011;9989;48.962;9.182;2022-09-16T12:12:21;10.60;;;3.43;;
19679;SDS011;9989;48.962;9.182;2022-09-16T12:15:33;6.33;;;2.60;;
19679;SDS011;9989;48.962;9.182;2022-09-16T12:17:46;6.60;;;2.70;;
19679;SDS011;9989;48.962;9.182;2022-09-16T12:20:18;7.67;;;2.70;;
19679;SDS011;9989;48.962;9.182;2022-09-16T12:22:49;6.57;;;2.70;;
19679;SDS011;9989;48.962;9.182;2022-09-16T12:25:40;5.43;;;2.50;;
19679;SDS011;9989;48.962;9.182;2022-09-16T12:28:18;5.87;;;2.30;;
19679;SDS011;9989;48.962;9.182;2022-09-16T12:30:45;7.67;;;2.30;;
19679;SDS011;9989;48.962;9.182;2022-09-16T12:33:25;6.50;;;2.40;;
19679;SDS011;9989;48.962;9.182;2022-09-16T12:38:29;5.73;;;2.37;;
19679;SDS011;9989;48.962;9.182;2022-09-16T12:47:01;5.20;;;2.60;;
19679;SDS011;9989;48.962;9.182;2022-09-16T12:52:29;6.93;;;2.57;;
19679;SDS011;9989;48.962;9.182;2022-09-16T13:00:19;6.43;;;2.50;;
19679;SDS011;9989;48.962;9.182;2022-09-16T13:03:05;8.80;;;3.30;;
19679;SDS011;9989;48.962;9.182;2022-09-16T13:05:44;8.70;;;2.90;;
19679;SDS011;9989;48.962;9.182;2022-09-16T13:08:28;7.10;;;2.73;;
19679;SDS011;9989;48.962;9.182;2022-09-16T13:10:57;9.50;;;3.03;;
19679;SDS011;9989;48.962;9.182;2022-09-16T13:13:39;5.10;;;2.20;;
19679;SDS011;9989;48.962;9.182;2022-09-16T13:16:10;6.37;;;2.37;;
19679;SDS011;9989;48.962;9.182;2022-09-16T13:18:43;5.13;;;2.13;;
19679;SDS011;9989;48.962;9.182;2022-09-16T13:21:21;7.70;;;2.87;;
19679;SDS011;9989;48.962;9.182;2022-09-16T13:24:35;7.37;;;2.43;;
19679;SDS011;9989;48.962;9.182;2022-09-16T13:27:18;6.30;;;2.40;;
19679;SDS011;9989;48.962;9.182;2022-09-16T13:37:46;4.03;;;2.17;;
19679;SDS011;9989;48.962;9.182;2022-09-16T13:40:26;4.50;;;2.00;;
19679;SDS011;9989;48.962;9.182;2022-09-16T13:45:35;4.73;;;1.90;;
19679;SDS011;9989;48.962;9.182;2022-09-16T13:50:34;3.87;;;1.80;;
19679;SDS011;9989;48.962;9.182;2022-09-16T13:53:10;5.47;;;2.13;;
19679;SDS011;9989;48.962;9.182;2022-09-16T13:55:45;4.77;;;2.10;;
19679;SDS011;9989;48.962;9.182;2022-09-16T14:01:20;4.87;;;2.00;;
19679;SDS011;9989;48.962;9.182;2022-09-16T14:09:24;5.73;;;1.90;;
19679;SDS011;9989;48.962;9.182;2022-09-16T14:14:52;6.67;;;2.27;;
19679;SDS011;9989;48.962;9.182;2022-09-16T14:17:23;12.43;;;2.23;;
19679;SDS011;9989;48.962;9.182;2022-09-16T14:19:52;5.23;;;2.40;;
19679;SDS011;9989;48.962;9.182;2022-09-16T14:22:22;9.00;;;2.10;;
19679;SDS011;9989;48.962;9.182;2022-09-16T14:24:50;7.37;;;2.33;;
19679;SDS011;9989;48.962;9.182;2022-09-16T14:27:18;5.10;;;2.00;;
19679;SDS011;9989;48.962;9.182;2022-09-16T14:29:59;6.83;;;1.97;;
19679;SDS011;9989;48.962;9.182;2022-09-16T14:32:26;6.37;;;2.47;;
19679;SDS011;9989;48.962;9.182;2022-09-16T14:35:12;5.17;;;2.10;;
19679;SDS011;9989;48.962;9.182;2022-09-16T14:37:45;5.50;;;2.13;;
19679;SDS011;9989;48.962;9.182;2022-09-16T14:40:15;5.30;;;2.10;;
19679;SDS011;9989;48.962;9.182;2022-09-16T14:42:52;5.23;;;2.03;;
19679;SDS011;9989;48.962;9.182;2022-09-16T14:45:22;6.17;;;1.80;;
19679;SDS011;9989;48.962;9.182;2022-09-16T14:47:48;6.50;;;2.93;;
19679;SDS011;9989;48.962;9.182;2022-09-16T14:50:23;4.93;;;1.60;;
19679;SDS011;9989;48.962;9.182;2022-09-16T14:55:26;4.67;;;1.67;;
19679;SDS011;9989;48.962;9.182;2022-09-16T14:57:53;5.80;;;1.87;;
19679;SDS011;9989;48.962;9.182;2022-09-16T15:00:19;5.57;;;1.87;;
19679;SDS011;9989;48.962;9.182;2022-09-16T15:02:50;5.40;;;1.63;;
19679;SDS011;9989;48.962;9.182;2022-09-16T15:05:35;4.50;;;1.70;;
19679;SDS011;9989;48.962;9.182;2022-09-16T15:11:03;4.43;;;1.60;;
19679;SDS011;9989;48.962;9.182;2022-09-16T15:13:37;4.80;;;1.80;;
19679;SDS011;9989;48.962;9.182;2022-09-16T15:16:07;5.80;;;1.60;;
19679;SDS011;9989;48.962;9.182;2022-09-16T15:18:41;5.20;;;1.40;;
19679;SDS011;9989;48.962;9.182;2022-09-16T15:21:24;5.47;;;1.70;;
19679;SDS011;9989;48.962;9.182;2022-09-16T15:24:00;3.70;;;1.23;;
19679;SDS011;9989;48.962;9.182;2022-09-16T15:29:04;2.77;;;1.20;;
19679;SDS011;9989;48.962;9.182;2022-09-16T15:31:35;5.60;;;1.43;;
19679;SDS011;9989;48.962;9.182;2022-09-16T15:36:48;3.97;;;1.27;;
19679;SDS011;9989;48.962;9.182;2022-09-16T15:42:09;3.70;;;1.50;;
19679;SDS011;9989;48.962;9.182;2022-09-16T15:44:46;4.53;;;1.60;;
19679;SDS011;9989;48.962;9.182;2022-09-16T15:47:32;4.33;;;1.63;;
19679;SDS011;9989;48.962;9.182;2022-09-16T15:52:34;5.83;;;1.67;;
19679;SDS011;9989;48.962;9.182;2022-09-16T15:55:27;6.30;;;1.80;;
19679;SDS011;9989;48.962;9.182;2022-09-16T15:58:00;5.47;;;1.60;;
19679;SDS011;9989;48.962;9.182;2022-09-16T16:00:53;4.97;;;1.57;;
19679;SDS011;9989;48.962;9.182;2022-09-16T16:03:19;4.77;;;1.50;;
19679;SDS011;9989;48.962;9.182;2022-09-16T16:05:52;3.47;;;1.30;;
19679;SDS011;9989;48.962;9.182;2022-09-16T16:08:37;3.47;;;1.47;;
19679;SDS011;9989;48.962;9.182;2022-09-16T16:11:16;4.00;;;1.50;;
19679;SDS011;9989;48.962;9.182;2022-09-16T16:13:44;4.00;;;1.60;;
19679;SDS011;9989;48.962;9.182;2022-09-16T16:16:10;3.70;;;1.40;;
19679;SDS011;9989;48.962;9.182;2022-09-16T16:18:38;8.57;;;1.77;;
19679;SDS011;9989;48.962;9.182;2022-09-16T16:21:13;4.27;;;1.80;;
19679;SDS011;9989;48.962;9.182;2022-09-16T16:23:40;6.23;;;2.00;;
19679;SDS011;9989;48.962;9.182;2022-09-16T16:26:07;4.77;;;1.83;;
19679;SDS011;9989;48.962;9.182;2022-09-16T16:28:33;4.40;;;1.60;;
19679;SDS011;9989;48.962;9.182;2022-09-16T16:31:16;3.93;;;1.40;;
19679;SDS011;9989;48.962;9.182;2022-09-16T16:33:45;3.93;;;1.50;;
19679;SDS011;9989;48.962;9.182;2022-09-16T16:36:16;5.07;;;1.80;;
19679;SDS011;9989;48.962;9.182;2022-09-16T16:38:43;3.93;;;1.30;;
19679;SDS011;9989;48.962;9.182;2022-09-16T16:41:10;5.07;;;1.77;;
19679;SDS011;9989;48.962;9.182;2022-09-16T16:43:37;7.43;;;2.10;;
19679;SDS011;9989;48.962;9.182;2022-09-16T16:46:03;7.77;;;1.83;;
19679;SDS011;9989;48.962;9.182;2022-09-16T16:48:29;4.73;;;1.70;;
19679;SDS011;9989;48.962;9.182;2022-09-16T16:50:58;4.10;;;1.80;;
19679;SDS011;9989;48.962;9.182;2022-09-16T16:53:34;4.17;;;1.60;;
19679;SDS011;9989;48.962;9.182;2022-09-16T16:56:04;5.63;;;1.80;;
19679;SDS011;9989;48.962;9.182;2022-09-16T16:58:32;6.43;;;1.80;;
19679;SDS011;9989;48.962;9.182;2022-09-16T17:01:07;3.53;;;1.63;;
19679;SDS011;9989;48.962;9.182;2022-09-16T17:03:40;6.80;;;1.70;;
19679;SDS011;9989;48.962;9.182;2022-09-16T17:06:07;3.80;;;1.60;;
19679;SDS011;9989;48.962;9.182;2022-09-16T17:08:33;3.43;;;1.30;;
19679;SDS011;9989;48.962;9.182;2022-09-16T17:11:12;4.77;;;1.60;;
19679;SDS011;9989;48.962;9.182;2022-09-16T17:13:43;3.00;;;1.37;;
19679;SDS011;9989;48.962;9.182;2022-09-16T17:16:12;6.50;;;1.67;;
19679;SDS011;9989;48.962;9.182;2022-09-16T17:18:40;6.73;;;1.53;;
19679;SDS011;9989;48.962;9.182;2022-09-16T17:21:07;3.63;;;1.53;;
19679;SDS011;9989;48.962;9.182;2022-09-16T17:23:44;2.57;;;1.30;;
19679;SDS011;9989;48.962;9.182;2022-09-16T17:26:10;3.00;;;1.50;;
19679;SDS011;9989;48.962;9.182;2022-09-16T17:28:37;3.73;;;1.60;;
19679;SDS011;9989;48.962;9.182;2022-09-16T17:31:08;2.30;;;1.30;;
19679;SDS011;9989;48.962;9.182;2022-09-16T17:33:34;2.23;;;1.20;;
19679;SDS011;9989;48.962;9.182;2022-09-16T17:36:04;2.77;;;1.40;;
19679;SDS011;9989;48.962;9.182;2022-09-16T17:38:30;5.00;;;1.60;;
19679;SDS011;9989;48.962;9.182;2022-09-16T17:41:00;3.87;;;1.53;;
19679;SDS011;9989;48.962;9.182;2022-09-16T17:43:27;2.90;;;1.37;;
19679;SDS011;9989;48.962;9.182;2022-09-16T17:45:53;2.47;;;1.30;;
19679;SDS011;9989;48.962;9.182;2022-09-16T17:48:19;3.63;;;1.40;;
19679;SDS011;9989;48.962;9.182;2022-09-16T17:50:48;7.83;;;2.67;;
19679;SDS011;9989;48.962;9.182;2022-09-16T17:53:15;5.60;;;2.00;;
19679;SDS011;9989;48.962;9.182;2022-09-16T17:55:40;4.97;;;1.80;;
19679;SDS011;9989;48.962;9.182;2022-09-16T17:58:06;6.63;;;2.03;;
19679;SDS011;9989;48.962;9.182;2022-09-16T18:00:31;7.60;;;2.43;;
19679;SDS011;9989;48.962;9.182;2022-09-16T18:02:57;7.00;;;2.43;;
19679;SDS011;9989;48.962;9.182;2022-09-16T18:05:22;6.30;;;2.13;;
19679;SDS011;9989;48.962;9.182;2022-09-16T18:07:48;4.97;;;1.97;;
19679;SDS011;9989;48.962;9.182;2022-09-16T18:10:13;4.10;;;1.70;;
19679;SDS011;9989;48.962;9.182;2022-09-16T18:12:39;5.00;;;1.93;;
19679;SDS011;9989;48.962;9.182;2022-09-16T18:15:05;7.37;;;2.97;;
19679;SDS011;9989;48.962;9.182;2022-09-16T18:17:31;7.80;;;2.17;;
19679;SDS011;9989;48.962;9.182;2022-09-16T18:19:56;3.90;;;1.70;;
19679;SDS011;9989;48.962;9.182;2022-09-16T18:22:22;4.20;;;1.40;;
19679;SDS011;9989;48.962;9.182;2022-09-16T18:24:47;2.67;;;1.40;;